createdAt,value
2023-02-11T00:00:18.368Z,4.60
2023-02-11T00:01:19.417Z,4.50
2023-02-11T00:02:19.385Z,5.20
2023-02-11T00:03:19.425Z,4.80
2023-02-11T00:04:19.345Z,6.10
2023-02-11T00:05:19.332Z,4.50
2023-02-11T00:06:19.435Z,5.30
2023-02-11T00:07:19.304Z,4.30
2023-02-11T00:08:19.324Z,5.10
2023-02-11T00:09:19.294Z,5.70
2023-02-11T00:10:19.337Z,6.60
2023-02-11T00:11:19.381Z,4.70
2023-02-11T00:12:19.266Z,6.30
2023-02-11T00:13:19.236Z,6.00
2023-02-11T00:14:19.251Z,5.30
2023-02-11T00:15:19.266Z,4.80
2023-02-11T00:16:19.298Z,6.60
2023-02-11T00:17:19.212Z,5.60
2023-02-11T00:18:19.236Z,6.00
2023-02-11T00:19:19.197Z,5.20
2023-02-11T00:20:19.181Z,5.20
2023-02-11T00:21:19.146Z,6.90
2023-02-11T00:22:19.152Z,5.10
2023-02-11T00:23:19.173Z,4.70
2023-02-11T00:24:19.139Z,4.40
2023-02-11T00:25:19.132Z,5.10
2023-02-11T00:26:19.126Z,4.60
2023-02-11T00:27:19.133Z,4.50
2023-02-11T00:28:19.349Z,5.00
2023-02-11T00:29:19.123Z,4.90
2023-02-11T00:30:19.126Z,5.70
2023-02-11T00:31:19.163Z,4.50
2023-02-11T00:32:19.044Z,4.80
2023-02-11T00:33:19.133Z,5.50
2023-02-11T00:34:19.058Z,5.20
2023-02-11T00:35:19.038Z,4.90
2023-02-11T00:36:19.044Z,4.30
2023-02-11T00:37:18.988Z,5.10
2023-02-11T00:38:19.067Z,4.10
2023-02-11T00:39:18.964Z,4.60
2023-02-11T00:40:19.020Z,4.00
2023-02-11T00:41:18.976Z,4.00
2023-02-11T00:42:18.976Z,5.80
2023-02-11T00:43:18.931Z,4.80
2023-02-11T00:44:18.942Z,4.80
2023-02-11T00:45:18.917Z,4.20
2023-02-11T00:46:19.007Z,4.50
2023-02-11T00:47:18.889Z,4.00
2023-02-11T00:48:18.849Z,5.10
2023-02-11T00:49:18.870Z,5.50
2023-02-11T00:50:18.884Z,3.90
2023-02-11T00:51:18.832Z,4.00
2023-02-11T00:52:18.874Z,4.20
2023-02-11T00:53:18.841Z,4.80
2023-02-11T00:54:18.832Z,4.60
2023-02-11T00:55:18.837Z,4.60
2023-02-11T00:56:18.842Z,4.60
2023-02-11T00:57:18.777Z,4.20
2023-02-11T00:58:18.795Z,4.10
2023-02-11T00:59:18.789Z,4.30
2023-02-11T01:00:18.760Z,4.20
2023-02-11T01:01:18.823Z,4.10
2023-02-11T01:02:18.771Z,4.10
2023-02-11T01:03:18.716Z,4.70
2023-02-11T01:04:18.740Z,3.80
2023-02-11T01:05:18.820Z,4.90
2023-02-11T01:06:18.732Z,5.20
2023-02-11T01:07:18.687Z,4.30
2023-02-11T01:08:18.688Z,4.50
2023-02-11T01:09:18.688Z,4.30
2023-02-11T01:10:18.689Z,5.50
2023-02-11T01:11:18.629Z,5.00
2023-02-11T01:12:35.245Z,4.60
2023-02-11T01:13:18.620Z,4.50
2023-02-11T01:14:18.709Z,4.90
2023-02-11T01:15:18.659Z,4.00
2023-02-11T01:16:18.726Z,3.50
2023-02-11T01:17:18.588Z,4.10
2023-02-11T01:18:18.603Z,4.50
2023-02-11T01:19:18.579Z,4.60
2023-02-11T01:20:18.621Z,4.80
2023-02-11T01:21:18.576Z,4.00
2023-02-11T01:22:18.544Z,4.40
2023-02-11T01:23:18.528Z,3.40
2023-02-11T01:24:18.551Z,3.60
2023-02-11T01:25:18.509Z,5.10
2023-02-11T01:26:18.598Z,5.40
2023-02-11T01:27:18.482Z,4.00
2023-02-11T01:28:18.537Z,4.60
2023-02-11T01:29:18.498Z,4.10
2023-02-11T01:30:18.459Z,3.90
2023-02-11T01:31:18.543Z,5.00
2023-02-11T01:32:18.765Z,4.30
2023-02-11T01:33:18.450Z,4.60
2023-02-11T01:34:18.464Z,4.30
2023-02-11T01:35:18.408Z,4.50
2023-02-11T01:36:18.403Z,4.40
2023-02-11T01:37:18.416Z,5.00
2023-02-11T01:38:18.383Z,4.40
2023-02-11T01:39:18.378Z,4.20
2023-02-11T01:40:18.362Z,3.90
2023-02-11T01:41:18.378Z,4.10
2023-02-11T01:42:18.332Z,3.70
2023-02-11T01:43:18.368Z,4.20
2023-02-11T01:44:18.309Z,3.80
2023-02-11T01:45:18.386Z,4.30
2023-02-11T01:46:18.402Z,4.00
2023-02-11T01:47:18.325Z,4.10
2023-02-11T01:48:18.315Z,4.00
2023-02-11T01:49:18.395Z,4.10
2023-02-11T01:50:18.248Z,4.40
2023-02-11T01:51:18.264Z,4.10
2023-02-11T01:52:18.259Z,4.40
2023-02-11T01:53:18.180Z,5.00
2023-02-11T01:54:18.219Z,3.80
2023-02-11T01:55:18.270Z,4.90
2023-02-11T01:56:18.226Z,3.50
2023-02-11T01:57:18.216Z,3.50
2023-02-11T01:58:18.177Z,3.10
2023-02-11T01:59:18.159Z,3.40
2023-02-11T02:00:18.229Z,3.60
2023-02-11T02:01:18.201Z,3.70
2023-02-11T02:02:18.169Z,4.30
2023-02-11T02:03:18.191Z,3.60
2023-02-11T02:04:18.129Z,3.50
2023-02-11T02:05:18.112Z,3.50
2023-02-11T02:06:18.114Z,3.90
2023-02-11T02:07:18.130Z,2.60
2023-02-11T02:08:18.062Z,4.10
2023-02-11T02:09:18.063Z,2.60
2023-02-11T02:10:18.037Z,3.50
2023-02-11T02:11:18.065Z,3.50
2023-02-11T02:12:18.046Z,3.50
2023-02-11T02:13:18.010Z,3.70
2023-02-11T02:14:18.020Z,3.40
2023-02-11T02:15:18.094Z,3.50
2023-02-11T02:16:18.076Z,3.20
2023-02-11T02:17:17.993Z,3.60
2023-02-11T02:18:17.910Z,3.70
2023-02-11T02:19:17.999Z,4.20
2023-02-11T02:20:17.985Z,2.70
2023-02-11T02:21:18.680Z,3.90
2023-02-11T02:22:17.926Z,3.80
2023-02-11T02:23:17.926Z,3.20
2023-02-11T02:24:17.903Z,3.90
2023-02-11T02:25:28.907Z,4.90
2023-02-11T02:26:17.890Z,2.70
2023-02-11T02:27:17.878Z,3.10
2023-02-11T02:28:17.974Z,3.50
2023-02-11T02:29:17.895Z,3.10
2023-02-11T02:30:17.826Z,3.70
2023-02-11T02:31:17.879Z,3.00
2023-02-11T02:32:17.820Z,3.00
2023-02-11T02:33:24.841Z,4.50
2023-02-11T02:34:17.829Z,3.80
2023-02-11T02:35:17.792Z,3.20
2023-02-11T02:36:17.806Z,4.30
2023-02-11T02:37:17.833Z,3.50
2023-02-11T02:38:17.776Z,3.70
2023-02-11T02:39:17.766Z,3.50
2023-02-11T02:40:17.737Z,3.30
2023-02-11T02:41:17.779Z,3.70
2023-02-11T02:42:17.716Z,3.20
2023-02-11T02:43:17.733Z,4.10
2023-02-11T02:44:17.725Z,2.90
2023-02-11T02:45:17.684Z,4.30
2023-02-11T02:46:17.716Z,2.80
2023-02-11T02:47:17.671Z,3.20
2023-02-11T02:48:17.691Z,3.40
2023-02-11T02:49:17.670Z,2.60
2023-02-11T02:50:17.651Z,3.40
2023-02-11T02:51:17.672Z,2.80
2023-02-11T02:52:17.649Z,3.70
2023-02-11T02:53:17.658Z,2.50
2023-02-11T02:54:17.610Z,3.60
2023-02-11T02:55:17.614Z,2.70
2023-02-11T02:56:17.625Z,2.40
2023-02-11T02:57:17.617Z,3.60
2023-02-11T02:58:17.587Z,3.00
2023-02-11T02:59:17.557Z,2.80
2023-02-11T03:00:17.556Z,2.90
2023-02-11T03:01:17.566Z,2.50
2023-02-11T03:02:17.533Z,3.30
2023-02-11T03:03:17.544Z,3.30
2023-02-11T03:04:17.552Z,3.10
2023-02-11T03:05:17.505Z,3.40
2023-02-11T03:06:17.497Z,2.20
2023-02-11T03:07:17.489Z,3.80
2023-02-11T03:08:17.516Z,3.60
2023-02-11T03:09:17.477Z,3.30
2023-02-11T03:10:17.441Z,3.10
2023-02-11T03:11:17.468Z,3.10
2023-02-11T03:12:17.441Z,2.60
2023-02-11T03:13:17.448Z,3.50
2023-02-11T03:14:17.426Z,3.10
2023-02-11T03:15:17.423Z,3.00
2023-02-11T03:16:17.460Z,3.10
2023-02-11T03:17:17.374Z,3.00
2023-02-11T03:18:17.385Z,2.70
2023-02-11T03:19:17.377Z,3.10
2023-02-11T03:20:17.360Z,3.20
2023-02-11T03:21:17.355Z,3.40
2023-02-11T03:22:17.359Z,3.00
2023-02-11T03:23:17.323Z,2.80
2023-02-11T03:24:17.302Z,3.00
2023-02-11T03:25:17.309Z,3.30
2023-02-11T03:26:17.281Z,3.60
2023-02-11T03:27:17.315Z,3.10
2023-02-11T03:28:17.356Z,3.60
2023-02-11T03:29:17.265Z,3.30
2023-02-11T03:30:17.284Z,3.40
2023-02-11T03:31:17.363Z,3.40
2023-02-11T03:32:17.345Z,3.40
2023-02-11T03:33:17.216Z,2.80
2023-02-11T03:34:17.221Z,3.40
2023-02-11T03:35:17.180Z,3.30
2023-02-11T03:36:17.185Z,3.40
2023-02-11T03:37:17.196Z,3.20
2023-02-11T03:38:17.181Z,2.90
2023-02-11T03:41:49.728Z,3.90
2023-02-11T03:42:50.682Z,5.00
2023-02-11T03:43:50.689Z,3.20
2023-02-11T03:44:50.643Z,3.90
2023-02-11T03:45:50.993Z,3.60
2023-02-11T03:46:50.643Z,3.60
2023-02-11T03:47:50.630Z,3.40
2023-02-11T03:48:50.602Z,3.50
2023-02-11T03:49:50.762Z,3.20
2023-02-11T03:50:50.598Z,3.60
2023-02-11T03:51:50.589Z,2.80
2023-02-11T03:52:50.628Z,4.00
2023-02-11T03:53:50.569Z,2.80
2023-02-11T03:54:50.638Z,3.10
2023-02-11T03:55:50.885Z,2.90
2023-02-11T03:56:50.523Z,3.30
2023-02-11T03:57:50.520Z,3.10
2023-02-11T03:58:50.525Z,2.90
2023-02-11T03:59:50.499Z,3.20
2023-02-11T04:00:50.525Z,2.80
2023-02-11T04:01:50.490Z,3.00
2023-02-11T04:02:50.521Z,3.30
2023-02-11T04:03:50.464Z,2.60
2023-02-11T04:04:50.437Z,2.60
2023-02-11T04:05:50.777Z,3.00
2023-02-11T04:06:50.442Z,2.80
2023-02-11T04:07:50.419Z,2.60
2023-02-11T04:08:50.445Z,3.10
2023-02-11T04:09:50.395Z,2.90
2023-02-11T04:10:50.384Z,3.30
2023-02-11T04:11:50.384Z,2.70
2023-02-11T04:12:50.414Z,3.20
2023-02-11T04:13:50.380Z,3.20
2023-02-11T04:14:51.939Z,3.20
2023-02-11T04:15:50.755Z,3.00
2023-02-11T04:16:50.426Z,3.30
2023-02-11T04:17:50.318Z,3.90
2023-02-11T04:18:50.901Z,2.50
2023-02-11T04:19:50.292Z,3.70
2023-02-11T04:20:50.897Z,3.30
2023-02-11T04:21:50.281Z,3.30
2023-02-11T04:22:50.781Z,2.90
2023-02-11T04:23:50.266Z,2.90
2023-02-11T04:24:50.808Z,2.90
2023-02-11T04:25:50.594Z,3.10
2023-02-11T04:26:50.281Z,2.50
2023-02-11T04:27:50.198Z,2.60
2023-02-11T04:28:50.196Z,2.70
2023-02-11T04:29:50.196Z,4.90
2023-02-11T04:30:50.237Z,2.20
2023-02-11T04:31:50.191Z,2.70
2023-02-11T04:32:50.133Z,2.60
2023-02-11T04:33:50.140Z,2.80
2023-02-11T04:34:50.155Z,2.90
2023-02-11T04:35:50.477Z,2.40
2023-02-11T04:36:50.129Z,3.40
2023-02-11T04:37:50.100Z,2.50
2023-02-11T04:38:50.101Z,3.00
2023-02-11T04:39:50.092Z,3.00
2023-02-11T04:40:50.062Z,3.40
2023-02-11T04:41:50.054Z,2.70
2023-02-11T04:42:50.052Z,3.50
2023-02-11T04:43:50.037Z,3.10
2023-02-11T04:44:50.041Z,3.00
2023-02-11T04:45:50.437Z,2.60
2023-02-11T04:46:49.996Z,3.10
2023-02-11T04:47:49.994Z,2.60
2023-02-11T04:48:49.989Z,2.30
2023-02-11T04:49:50.007Z,3.10
2023-02-11T04:50:50.027Z,2.90
2023-02-11T04:52:01.005Z,2.80
2023-02-11T04:52:49.963Z,3.00
2023-02-11T04:53:49.947Z,2.70
2023-02-11T04:54:49.928Z,2.80
2023-02-11T04:55:50.329Z,3.20
2023-02-11T04:56:49.929Z,2.60
2023-02-11T04:57:49.891Z,2.20
2023-02-11T04:58:49.934Z,2.50
2023-02-11T04:59:49.890Z,2.90
2023-02-11T05:00:50.012Z,3.30
2023-02-11T05:01:49.877Z,3.30
2023-02-11T05:02:49.940Z,4.10
2023-02-11T05:03:49.865Z,2.50
2023-02-11T05:04:49.857Z,3.20
2023-02-11T05:05:50.212Z,3.00
2023-02-11T05:06:49.828Z,2.90
2023-02-11T05:07:49.802Z,3.60
2023-02-11T05:08:49.853Z,3.10
2023-02-11T05:09:49.801Z,3.20
2023-02-11T05:10:49.764Z,3.80
2023-02-11T05:11:49.773Z,3.20
2023-02-11T05:12:49.810Z,3.70
2023-02-11T05:13:49.739Z,3.10
2023-02-11T05:14:49.719Z,3.20
2023-02-11T05:15:50.155Z,2.90
2023-02-11T05:16:49.778Z,3.00
2023-02-11T05:17:49.690Z,3.10
2023-02-11T05:18:52.453Z,3.60
2023-02-11T05:19:49.668Z,3.70
2023-02-11T05:20:49.662Z,2.60
2023-02-11T05:22:01.675Z,3.70
2023-02-11T05:22:49.644Z,2.70
2023-02-11T05:23:49.669Z,3.20
2023-02-11T05:24:49.659Z,2.70
2023-02-11T05:25:49.968Z,2.80
2023-02-11T05:26:49.602Z,2.30
2023-02-11T05:27:49.585Z,2.90
2023-02-11T05:28:49.578Z,3.00
2023-02-11T05:29:49.570Z,2.80
2023-02-11T05:30:49.674Z,3.60
2023-02-11T05:31:49.564Z,2.90
2023-02-11T05:32:49.779Z,3.30
2023-02-11T05:33:49.522Z,2.50
2023-02-11T05:34:49.545Z,4.10
2023-02-11T05:35:49.899Z,2.80
2023-02-11T05:36:49.502Z,2.60
2023-02-11T05:37:49.507Z,3.20
2023-02-11T05:38:50.034Z,3.10
2023-02-11T05:39:49.474Z,2.80
2023-02-11T05:40:49.460Z,3.30
2023-02-11T05:41:49.483Z,2.70
2023-02-11T05:42:49.473Z,2.50
2023-02-11T05:43:49.564Z,3.70
2023-02-11T05:44:50.711Z,3.00
2023-02-11T05:45:49.723Z,2.90
2023-02-11T05:46:49.441Z,2.80
2023-02-11T05:47:49.376Z,3.30
2023-02-11T05:48:49.381Z,3.10
2023-02-11T05:49:49.354Z,2.90
2023-02-11T05:50:49.402Z,3.60
2023-02-11T05:51:49.333Z,2.60
2023-02-11T05:52:49.342Z,3.60
2023-02-11T05:53:49.313Z,3.70
2023-02-11T05:54:49.333Z,3.60
2023-02-11T05:55:49.777Z,3.10
2023-02-11T05:56:49.379Z,4.30
2023-02-11T06:00:22.468Z,4.00
2023-02-11T06:01:23.445Z,3.10
2023-02-11T06:02:23.395Z,4.00
2023-02-11T06:03:23.439Z,3.40
2023-02-11T06:04:23.367Z,3.60
2023-02-11T06:05:23.353Z,3.50
2023-02-11T06:06:32.500Z,4.00
2023-02-11T06:07:23.392Z,3.70
2023-02-11T06:08:23.381Z,3.10
2023-02-11T06:09:23.274Z,4.00
2023-02-11T06:10:23.276Z,4.30
2023-02-11T06:11:23.258Z,2.90
2023-02-11T06:12:23.262Z,3.30
2023-02-11T06:13:23.258Z,3.70
2023-02-11T06:14:23.240Z,2.70
2023-02-11T06:15:23.237Z,3.70
2023-02-11T06:16:23.246Z,4.70
2023-02-11T06:17:23.202Z,3.60
2023-02-11T06:18:23.212Z,3.40
2023-02-11T06:19:23.184Z,3.30
2023-02-11T06:20:23.179Z,4.00
2023-02-11T06:21:26.455Z,3.70
2023-02-11T06:22:23.186Z,3.40
2023-02-11T06:23:23.157Z,3.50
2023-02-11T06:24:44.340Z,2.40
2023-02-11T06:25:23.153Z,3.10
2023-02-11T06:26:23.156Z,3.60
2023-02-11T06:27:23.101Z,3.40
2023-02-11T06:28:23.153Z,3.80
2023-02-11T06:29:23.041Z,3.30
2023-02-11T06:30:23.037Z,2.70
2023-02-11T06:31:23.163Z,3.70
2023-02-11T06:32:43.257Z,4.50
2023-02-11T06:33:23.004Z,3.20
2023-02-11T06:34:22.982Z,4.00
2023-02-11T06:35:22.981Z,3.20
2023-02-11T06:36:23.010Z,3.70
2023-02-11T06:37:22.995Z,2.80
2023-02-11T06:38:22.972Z,4.20
2023-02-11T06:39:22.937Z,4.20
2023-02-11T06:40:22.915Z,4.40
2023-02-11T06:41:22.910Z,3.90
2023-02-11T06:42:22.903Z,4.30
2023-02-11T06:43:22.938Z,3.50
2023-02-11T06:44:22.886Z,3.00
2023-02-11T06:45:22.971Z,3.80
2023-02-11T06:46:22.887Z,3.40
2023-02-11T06:47:22.869Z,4.30
2023-02-11T06:48:22.842Z,3.20
2023-02-11T06:49:22.843Z,3.70
2023-02-11T06:50:22.829Z,3.90
2023-02-11T06:51:22.819Z,3.20
2023-02-11T06:52:22.794Z,3.90
2023-02-11T06:53:22.820Z,3.70
2023-02-11T06:54:22.776Z,4.10
2023-02-11T06:55:22.770Z,5.30
2023-02-11T06:56:22.761Z,3.50
2023-02-11T06:57:22.731Z,3.80
2023-02-11T06:58:22.753Z,4.60
2023-02-11T06:59:22.730Z,4.10
2023-02-11T07:00:22.735Z,4.20
2023-02-11T07:01:22.869Z,3.60
2023-02-11T07:02:22.704Z,3.80
2023-02-11T07:03:22.708Z,4.00
2023-02-11T07:04:22.722Z,3.90
2023-02-11T07:05:22.677Z,4.00
2023-02-11T07:06:22.682Z,3.90
2023-02-11T07:07:22.657Z,4.80
2023-02-11T07:08:22.645Z,4.30
2023-02-11T07:09:22.631Z,4.30
2023-02-11T07:10:22.620Z,4.60
2023-02-11T07:11:22.636Z,4.30
2023-02-11T07:12:22.634Z,4.20
2023-02-11T07:13:22.593Z,3.50
2023-02-11T07:14:22.616Z,4.30
2023-02-11T07:15:22.571Z,3.80
2023-02-11T07:16:22.698Z,3.70
2023-02-11T07:17:22.537Z,3.40
2023-02-11T07:18:22.559Z,4.30
2023-02-11T07:19:22.535Z,3.90
2023-02-11T07:20:31.573Z,4.30
2023-02-11T07:21:22.510Z,3.90
2023-02-11T07:22:22.516Z,3.20
2023-02-11T07:23:22.474Z,3.90
2023-02-11T07:24:22.543Z,3.30
2023-02-11T07:25:22.485Z,3.70
2023-02-11T07:26:22.467Z,3.00
2023-02-11T07:27:22.491Z,4.20
2023-02-11T07:28:22.516Z,4.10
2023-02-11T07:29:22.430Z,3.70
2023-02-11T07:30:22.739Z,3.80
2023-02-11T07:31:22.479Z,4.30
2023-02-11T07:32:22.412Z,4.50
2023-02-11T07:33:22.392Z,4.30
2023-02-11T07:34:22.424Z,4.10
2023-02-11T07:35:22.488Z,5.30
2023-02-11T07:36:22.419Z,3.90
2023-02-11T07:37:22.367Z,4.60
2023-02-11T07:38:22.397Z,4.40
2023-02-11T07:39:22.454Z,4.70
2023-02-11T07:40:22.412Z,5.00
2023-02-11T07:41:29.956Z,3.80
2023-02-11T07:42:22.313Z,4.20
2023-02-11T07:43:22.387Z,4.20
2023-02-11T07:44:22.338Z,3.40
2023-02-11T07:46:39.341Z,4.10
2023-02-11T07:47:40.167Z,3.70
2023-02-11T07:48:40.126Z,4.50
2023-02-11T07:49:40.158Z,4.30
2023-02-11T07:50:40.112Z,4.70
2023-02-11T07:51:40.217Z,4.10
2023-02-11T07:52:40.103Z,3.70
2023-02-11T07:53:40.113Z,3.20
2023-02-11T07:54:40.067Z,3.50
2023-02-11T07:55:40.888Z,4.10
2023-02-11T07:56:40.039Z,3.50
2023-02-11T07:57:40.058Z,4.50
2023-02-11T07:58:40.040Z,4.10
2023-02-11T07:59:40.049Z,3.50
2023-02-11T08:00:40.017Z,3.40
2023-02-11T08:01:40.037Z,4.20
2023-02-11T08:02:39.989Z,3.70
2023-02-11T08:03:40.011Z,3.60
2023-02-11T08:04:39.959Z,4.50
2023-02-11T08:05:39.986Z,4.10
2023-02-11T08:06:39.957Z,3.70
2023-02-11T08:07:39.976Z,4.30
2023-02-11T08:08:39.921Z,5.00
2023-02-11T08:09:39.942Z,4.60
2023-02-11T08:10:39.913Z,4.40
2023-02-11T08:11:39.896Z,3.50
2023-02-11T08:12:39.926Z,3.80
2023-02-11T08:13:39.879Z,3.60
2023-02-11T08:14:39.882Z,3.70
2023-02-11T08:21:20.680Z,4.70
2023-02-11T08:22:21.654Z,4.20
2023-02-11T08:23:21.644Z,4.60
2023-02-11T08:24:21.603Z,3.60
2023-02-11T08:25:21.627Z,5.40
2023-02-11T08:26:21.599Z,3.90
2023-02-11T08:29:06.930Z,3.90
2023-02-11T08:30:06.751Z,3.50
2023-02-11T08:31:06.799Z,4.40
2023-02-11T08:32:06.763Z,4.30
2023-02-11T08:33:06.728Z,4.30
2023-02-11T08:34:15.118Z,4.90
2023-02-11T08:35:06.706Z,5.40
2023-02-11T08:36:06.704Z,4.20
2023-02-11T08:37:06.700Z,3.90
2023-02-11T08:38:06.680Z,4.10
2023-02-11T08:39:20.792Z,4.20
2023-02-11T08:40:06.702Z,4.80
2023-02-11T08:41:06.626Z,3.80
2023-02-11T08:42:06.616Z,3.30
2023-02-11T08:43:08.155Z,5.50
2023-02-11T08:44:06.676Z,4.10
2023-02-11T08:45:06.579Z,4.00
2023-02-11T08:46:06.651Z,3.50
2023-02-11T08:47:06.611Z,3.90
2023-02-11T08:48:06.606Z,3.50
2023-02-11T08:49:06.607Z,4.10
2023-02-11T08:50:06.578Z,3.80
2023-02-11T08:51:06.534Z,4.40
2023-02-11T08:52:06.534Z,4.10
2023-02-11T08:53:06.509Z,3.80
2023-02-11T08:54:06.515Z,4.20
2023-02-11T08:55:06.481Z,4.40
2023-02-11T08:56:06.563Z,3.90
2023-02-11T08:57:06.495Z,4.20
2023-02-11T08:58:06.466Z,3.60
2023-02-11T08:59:06.473Z,3.60
2023-02-11T09:00:06.467Z,4.40
2023-02-11T09:01:16.747Z,4.40
2023-02-11T09:02:06.462Z,3.90
2023-02-11T09:03:06.465Z,3.90
2023-02-11T09:04:06.401Z,4.80
2023-02-11T09:06:50.650Z,5.10
2023-02-11T09:07:51.748Z,4.90
2023-02-11T09:08:51.758Z,4.90
2023-02-11T09:09:51.671Z,4.20
2023-02-11T09:10:52.224Z,3.40
2023-02-11T09:15:25.779Z,4.30
2023-02-11T09:16:26.837Z,3.60
2023-02-11T09:17:26.821Z,4.60
2023-02-11T09:18:26.733Z,5.30
2023-02-11T09:19:26.727Z,4.30
2023-02-11T09:20:26.899Z,4.20
2023-02-11T09:21:26.713Z,4.50
2023-02-11T09:22:26.684Z,4.20
2023-02-11T09:23:26.788Z,4.20
2023-02-11T09:24:26.693Z,4.60
2023-02-11T09:25:26.670Z,4.60
2023-02-11T09:26:26.679Z,3.90
2023-02-11T09:27:26.695Z,3.60
2023-02-11T09:28:26.762Z,4.30
2023-02-11T09:29:26.791Z,3.50
2023-02-11T09:30:26.723Z,4.10
2023-02-11T09:31:26.823Z,4.30
2023-02-11T09:32:26.568Z,4.90
2023-02-11T09:33:26.615Z,4.30
2023-02-11T09:34:26.549Z,4.30
2023-02-11T09:35:26.616Z,4.00
2023-02-11T09:36:27.194Z,4.10
2023-02-11T09:37:26.540Z,4.50
2023-02-11T09:38:26.580Z,5.20
2023-02-11T09:39:26.515Z,4.30
2023-02-11T09:40:26.504Z,4.00
2023-02-11T09:41:26.532Z,4.30
2023-02-11T09:42:26.494Z,5.20
2023-02-11T09:45:53.113Z,4.00
2023-02-11T09:48:41.664Z,4.50
2023-02-11T09:49:42.707Z,5.00
2023-02-11T09:50:42.696Z,4.10
2023-02-11T09:51:42.819Z,4.40
2023-02-11T09:52:42.597Z,5.10
2023-02-11T09:53:42.613Z,5.20
2023-02-11T09:54:42.593Z,4.10
2023-02-11T09:55:42.690Z,4.50
2023-02-11T09:56:42.577Z,4.00
2023-02-11T09:57:42.733Z,4.00
2023-02-11T09:58:42.647Z,4.90
2023-02-11T10:01:43.310Z,5.50
2023-02-11T10:02:44.219Z,4.60
2023-02-11T10:03:44.187Z,4.90
2023-02-11T10:04:44.193Z,4.20
2023-02-11T10:05:44.153Z,5.00
2023-02-11T10:08:16.579Z,4.20
2023-02-11T10:09:14.787Z,3.90
2023-02-11T10:10:15.812Z,4.40
2023-02-11T10:11:29.609Z,4.80
2023-02-11T10:13:33.224Z,4.30
2023-02-11T10:14:34.182Z,4.50
2023-02-11T10:15:35.380Z,5.00
2023-02-11T10:16:34.086Z,4.80
2023-02-11T10:17:34.124Z,4.50
2023-02-11T10:18:34.071Z,4.40
2023-02-11T10:19:34.116Z,4.90
2023-02-11T10:20:34.068Z,4.50
2023-02-11T10:21:34.009Z,4.00
2023-02-11T10:22:34.019Z,4.70
2023-02-11T10:23:33.994Z,4.80
2023-02-11T10:24:34.001Z,6.80
2023-02-11T10:25:33.971Z,6.80
2023-02-11T10:26:33.972Z,21.50
2023-02-11T10:27:33.952Z,10.00
2023-02-11T10:28:34.102Z,10.50
2023-02-11T10:29:33.928Z,9.20
2023-02-11T10:30:33.995Z,10.70
2023-02-11T10:31:34.020Z,5.40
2023-02-11T10:32:33.917Z,6.60
2023-02-11T10:33:33.882Z,5.70
2023-02-11T10:34:33.901Z,7.00
2023-02-11T10:35:33.866Z,7.50
2023-02-11T10:36:33.868Z,6.20
2023-02-11T10:37:33.899Z,5.50
2023-02-11T10:38:33.867Z,4.80
2023-02-11T10:39:33.832Z,8.20
2023-02-11T10:40:33.845Z,7.00
2023-02-11T10:41:33.812Z,5.80
2023-02-11T10:42:33.814Z,4.70
2023-02-11T10:43:33.837Z,5.90
2023-02-11T10:44:33.784Z,5.90
2023-02-11T10:45:33.762Z,5.30
2023-02-11T10:46:33.823Z,4.50
2023-02-11T10:47:33.749Z,6.50
2023-02-11T10:48:33.751Z,5.00
2023-02-11T10:49:33.730Z,4.60
2023-02-11T10:50:33.720Z,4.70
2023-02-11T10:51:33.724Z,6.00
2023-02-11T10:52:33.706Z,4.60
2023-02-11T10:53:33.686Z,5.30
2023-02-11T10:54:33.686Z,4.90
2023-02-11T10:55:33.676Z,4.90
2023-02-11T10:56:33.664Z,4.30
2023-02-11T10:57:33.638Z,4.50
2023-02-11T10:58:33.640Z,3.50
2023-02-11T10:59:33.644Z,5.60
2023-02-11T11:00:33.629Z,4.40
2023-02-11T11:01:33.638Z,4.40
2023-02-11T11:02:33.589Z,4.70
2023-02-11T11:03:33.587Z,5.70
2023-02-11T11:04:33.708Z,4.70
2023-02-11T11:05:33.570Z,4.90
2023-02-11T11:06:33.555Z,5.30
2023-02-11T11:07:33.531Z,3.90
2023-02-11T11:08:33.548Z,6.20
2023-02-11T11:09:33.514Z,6.30
2023-02-11T11:10:33.521Z,4.10
2023-02-11T11:11:33.526Z,4.20
2023-02-11T11:12:33.505Z,4.70
2023-02-11T11:13:33.474Z,5.20
2023-02-11T11:14:33.484Z,6.30
2023-02-11T11:15:33.483Z,4.80
2023-02-11T11:16:33.458Z,5.40
2023-02-11T11:17:33.435Z,4.20
2023-02-11T11:18:33.478Z,4.50
2023-02-11T11:19:33.439Z,4.90
2023-02-11T11:20:33.425Z,4.50
2023-02-11T11:21:33.402Z,5.30
2023-02-11T11:22:33.400Z,4.70
2023-02-11T11:23:33.373Z,4.30
2023-02-11T11:24:33.368Z,4.60
2023-02-11T11:25:33.369Z,4.00
2023-02-11T11:26:33.344Z,3.80
2023-02-11T11:27:33.339Z,4.80
2023-02-11T11:28:33.349Z,5.10
2023-02-11T11:29:33.314Z,5.40
2023-02-11T11:30:33.438Z,4.20
2023-02-11T11:31:33.446Z,4.70
2023-02-11T11:32:33.294Z,5.20
2023-02-11T11:33:33.269Z,4.80
2023-02-11T11:34:33.274Z,4.30
2023-02-11T11:35:33.246Z,4.00
2023-02-11T11:36:33.258Z,4.20
2023-02-11T11:37:33.236Z,3.90
2023-02-11T11:38:33.271Z,4.40
2023-02-11T11:39:33.341Z,4.80
2023-02-11T11:40:33.236Z,5.60
2023-02-11T11:41:33.210Z,4.80
2023-02-11T11:42:33.211Z,4.50
2023-02-11T11:43:33.188Z,5.80
2023-02-11T11:44:33.159Z,4.20
2023-02-11T11:45:33.140Z,4.80
2023-02-11T11:46:33.281Z,4.70
2023-02-11T11:47:33.131Z,5.20
2023-02-11T11:48:33.132Z,5.10
2023-02-11T11:49:33.086Z,4.30
2023-02-11T11:50:33.092Z,4.60
2023-02-11T11:51:33.062Z,4.20
2023-02-11T11:52:33.089Z,4.80
2023-02-11T11:53:33.045Z,4.70
2023-02-11T11:54:33.040Z,4.80
2023-02-11T11:55:33.032Z,4.90
2023-02-11T11:56:33.052Z,4.70
2023-02-11T11:57:32.999Z,5.70
2023-02-11T11:58:33.014Z,3.80
2023-02-11T11:59:32.974Z,5.50
2023-02-11T12:00:33.007Z,4.70
2023-02-11T12:01:32.991Z,5.20
2023-02-11T12:02:32.985Z,4.10
2023-02-11T12:03:32.942Z,4.70
2023-02-11T12:04:32.936Z,5.00
2023-02-11T12:05:33.058Z,4.50
2023-02-11T12:06:32.913Z,5.10
2023-02-11T12:07:32.899Z,4.50
2023-02-11T12:08:32.904Z,4.60
2023-02-11T12:09:32.936Z,4.40
2023-02-11T12:10:32.883Z,5.70
2023-02-11T12:11:32.858Z,4.80
2023-02-11T12:12:32.853Z,5.30
2023-02-11T12:13:32.853Z,5.30
2023-02-11T12:14:33.590Z,4.90
2023-02-11T12:15:32.806Z,4.60
2023-02-11T12:16:32.848Z,4.80
2023-02-11T12:17:32.785Z,5.60
2023-02-11T12:18:32.796Z,5.50
2023-02-11T12:19:32.767Z,4.00
2023-02-11T12:20:32.811Z,4.10
2023-02-11T12:21:32.756Z,4.50
2023-02-11T12:22:32.742Z,6.30
2023-02-11T12:23:32.715Z,4.50
2023-02-11T12:24:32.746Z,5.70
2023-02-11T12:25:32.720Z,5.20
2023-02-11T12:26:43.487Z,4.50
2023-02-11T12:28:55.571Z,4.50
2023-02-11T12:29:56.576Z,4.90
2023-02-11T12:30:56.571Z,4.80
2023-02-11T12:31:56.632Z,4.30
2023-02-11T12:32:56.537Z,5.20
2023-02-11T12:33:56.527Z,5.30
2023-02-11T12:34:56.525Z,4.60
2023-02-11T12:35:56.505Z,5.50
2023-02-11T12:36:56.490Z,5.50
2023-02-11T12:37:56.472Z,4.30
2023-02-11T12:38:56.489Z,5.40
2023-02-11T12:39:56.463Z,4.60
2023-02-11T12:40:56.470Z,5.30
2023-02-11T12:41:56.460Z,5.10
2023-02-11T12:42:56.479Z,5.40
2023-02-11T12:43:56.446Z,4.20
2023-02-11T12:44:56.424Z,5.30
2023-02-11T12:45:56.501Z,5.70
2023-02-11T12:46:56.401Z,4.80
2023-02-11T12:47:56.373Z,5.20
2023-02-11T12:48:56.410Z,4.20
2023-02-11T12:49:56.349Z,5.40
2023-02-11T12:50:56.355Z,4.70
2023-02-11T12:51:56.348Z,5.10
2023-02-11T12:52:56.310Z,5.60
2023-02-11T12:53:56.315Z,5.10
2023-02-11T12:54:56.293Z,4.10
2023-02-11T12:55:56.334Z,4.70
2023-02-11T12:56:56.290Z,4.80
2023-02-11T12:57:56.270Z,4.00
2023-02-11T12:58:56.308Z,4.00
2023-02-11T12:59:56.270Z,4.90
2023-02-11T13:00:56.271Z,3.80
2023-02-11T13:01:56.258Z,4.70
2023-02-11T13:02:56.220Z,5.00
2023-02-11T13:03:56.214Z,3.50
2023-02-11T13:04:56.245Z,4.40
2023-02-11T13:05:56.202Z,4.20
2023-02-11T13:06:56.165Z,4.70
2023-02-11T13:07:56.233Z,5.50
2023-02-11T13:08:56.150Z,4.60
2023-02-11T13:09:56.145Z,3.90
2023-02-11T13:10:56.128Z,4.30
2023-02-11T13:11:56.144Z,4.20
2023-02-11T13:12:56.119Z,4.80
2023-02-11T13:13:56.112Z,4.40
2023-02-11T13:14:56.095Z,3.80
2023-02-11T13:15:56.112Z,4.80
2023-02-11T13:16:56.252Z,4.50
2023-02-11T13:17:56.071Z,4.60
2023-02-11T13:18:56.063Z,4.60
2023-02-11T13:19:56.057Z,4.90
2023-02-11T13:20:56.045Z,3.70
2023-02-11T13:21:56.063Z,4.20
2023-02-11T13:22:56.071Z,4.10
2023-02-11T13:23:56.008Z,4.40
2023-02-11T13:24:56.002Z,4.10
2023-02-11T13:25:55.977Z,5.20
2023-02-11T13:26:55.986Z,3.70
2023-02-11T13:27:56.008Z,4.10
2023-02-11T13:28:55.932Z,4.10
2023-02-11T13:29:55.968Z,4.20
2023-02-11T13:30:56.101Z,3.80
2023-02-11T13:31:56.118Z,3.70
2023-02-11T13:34:19.507Z,4.00
2023-02-11T13:35:20.472Z,4.80
2023-02-11T13:36:20.481Z,3.80
2023-02-11T13:37:20.509Z,3.90
2023-02-11T13:38:20.370Z,3.40
2023-02-11T13:39:20.524Z,4.90
2023-02-11T13:40:20.452Z,4.20
2023-02-11T13:41:27.546Z,3.60
2023-02-11T13:42:20.420Z,3.40
2023-02-11T13:43:20.333Z,3.80
2023-02-11T13:44:20.339Z,4.60
2023-02-11T13:45:20.364Z,4.40
2023-02-11T13:48:07.492Z,4.00
2023-02-11T13:49:08.692Z,4.00
2023-02-11T13:50:08.280Z,4.30
2023-02-11T13:51:08.261Z,4.10